This is the latest recevied weather packets stored in our database for station/object KC4JIR. If no packets are shown the sender has not sent any weather packets the latest 10 day(s).
| Time | Temp. | Humidity | Pressure | Rain* | Wind** | Luminosity | Snow |
|---|---|---|---|---|---|---|---|
| 1788117068 | 33.33° C | 67% | 1016.7 hPa | 0 mm | - | 726 W/m² | - |
| 1788116763 | 32.78° C | 76% | 1016.8 hPa | 0 mm | - | 695 W/m² | - |
| 1788116458 | 32.78° C | 72% | 1016.6 hPa | 0 mm | - | 714 W/m² | - |
| 1788116151 | 32.22° C | 71% | 1016.8 hPa | 0 mm | - | 766 W/m² | - |
| 1788115848 | 31.67° C | 75% | 1016.9 hPa | 0 mm | - | 507 W/m² | - |
| 1788115546 | 31.11° C | 74% | 1016.8 hPa | 0 mm | - | 167 W/m² | - |
| 1788115241 | 32.22° C | 72% | 1017 hPa | 0 mm | - | 133 W/m² | - |
| 1788114936 | 32.78° C | 69% | 1017 hPa | 0 mm | - | 263 W/m² | - |
| 1788114632 | 32.22° C | 67% | 1017.2 hPa | 0 mm | - | 834 W/m² | - |
| 1788114327 | 32.78° C | 68% | 1017.1 hPa | 0 mm | - | 782 W/m² | - |
| 1788114023 | 32.22° C | 67% | 1017.4 hPa | 0 mm | - | 774 W/m² | - |
| 1788113719 | 32.78° C | 69% | 1017.1 hPa | 0 mm | - | 373 W/m² | - |
| 1788113418 | 31.67° C | 71% | 1017.1 hPa | 0 mm | - | 782 W/m² | - |
| 1788113118 | 31.11° C | 74% | 1017.5 hPa | 0 mm | - | 783 W/m² | - |
| 1788112817 | 29.44° C | 79% | 1017.6 hPa | 0 mm | - | 762 W/m² | - |
| 1788112511 | 28.89° C | 82% | 1017.8 hPa | 0 mm | - | 117 W/m² | - |
| 1788112206 | 29.44° C | 82% | 1017.7 hPa | 0 mm | - | 104 W/m² | - |
| 1788111902 | 30° C | 79% | 1017.6 hPa | 0 mm | - | 90 W/m² | - |
| 1788111596 | 30.56° C | 79% | 1018 hPa | 0 mm | - | 100 W/m² | - |
| 1788111292 | 31.11° C | 72% | 1017.9 hPa | 0 mm | - | 108 W/m² | - |
| 1788110987 | 30.56° C | 76% | 1018.1 hPa | 0 mm | - | 538 W/m² | - |
| 1788110684 | 30° C | 77% | 1018.3 hPa | 0 mm | - | 845 W/m² | - |
| 1788110379 | 30° C | 79% | 1018.3 hPa | 0 mm | - | 217 W/m² | - |
| 1788110074 | 30° C | 78% | 1018.4 hPa | 0 mm | - | 203 W/m² | - |
| 1788109769 | 30.56° C | 76% | 1018.4 hPa | 0 mm | - | 897 W/m² | - |
* Rain latest hour (hover to see other rain measurements)
** Current wind speed in m/s (hover to see current wind gust speed)